Bosporus — V2QY — position and weather

sailwx.info

Track history (hours):
 
Tides and Currents Weather Stations Pressure Air Temp Water Temp Dewpoint Dewpoint Depression Visibility Wind Speed Wind Dir Waves Ship Positions

Bosporus

Last reported at 2016-Feb-08 11:23 UTC. Time now 2016-Feb-08 12:28 UTC.
Position N 43°26' E 004°54'.

Length 100 m; draft 4.2 m.

Type: Cargo ship. MMSI: 304010802.

Date/timePositionNaut miles runAvg speedWind from/ knotsBaromVisibWave heightAir tempDewpointWater temp
2016-Feb-08 11:23N 43°26' E 004°54'0 0.0
2016-Feb-08 10:32N 43°26' E 004°54'0 0.0
2016-Feb-08 09:20N 43°26' E 004°54'0 0.0
2016-Feb-08 08:32N 43°26' E 004°54'0 0.0
2016-Feb-08 07:08N 43°26' E 004°54'0 0.0
2016-Feb-08 06:29N 43°26' E 004°54'0 0.0
2016-Feb-08 03:34N 43°26' E 004°54'7 7.1
2016-Feb-08 02:33N 43°20' E 004°59'1111.1
2016-Feb-08 01:33N 43°15' E 004°46'1211.7
2016-Feb-08 00:33N 43°12' E 004°30'  
2016-Feb-05 20:12N 41°07' E 001°58'36 9.6
2016-Feb-05 16:28N 41°28' E 002°37'9 9.3
2016-Feb-05 15:33N 41°33' E 002°46'11 9.4
2016-Feb-05 14:24N 41°39' E 002°58'9 9.7
2016-Feb-05 13:29N 41°45' E 003°07'9 9.7
2016-Feb-05 12:33N 41°52' E 003°16'97 9.7
2016-Feb-05 02:33N 43°16' E 004°19'10 9.9
2016-Feb-05 01:33N 43°16' E 004°33'10 9.7
2016-Feb-05 00:33N 43°16' E 004°46'9 8.3
2016-Feb-04 23:31N 43°21' E 004°56'5 0.4
2016-Feb-04 10:32N 43°26' E 004°54'0 0.0
2016-Feb-04 09:32N 43°26' E 004°54'0 0.0
2016-Feb-04 08:33N 43°26' E 004°54'0 0.0
2016-Feb-04 07:32N 43°26' E 004°54'1 0.0
2016-Feb-03 12:33N 43°25' E 004°53'3 2.8
2016-Feb-03 11:33N 43°25' E 004°57'0 0.0
2016-Feb-03 10:33N 43°25' E 004°57'0 0.0
2016-Feb-03 09:31N 43°25' E 004°57'0 0.0
2016-Feb-03 08:31N 43°25' E 004°57'0 0.0
2016-Feb-03 06:14N 43°25' E 004°57'0 0.0
2016-Feb-03 05:29N 43°25' E 004°57'0 0.0
2016-Feb-03 04:33N 43°25' E 004°57'0 0.0
2016-Feb-03 03:27N 43°25' E 004°57'0 0.0
2016-Feb-03 02:32N 43°25' E 004°57'0 0.0
2016-Feb-03 01:33N 43°25' E 004°57'0 0.0
2016-Feb-03 00:33N 43°25' E 004°57'0 0.0
2016-Feb-02 23:30N 43°25' E 004°57'0 0.0
2016-Feb-02 22:27N 43°25' E 004°57'0 0.0
2016-Feb-02 21:31N 43°25' E 004°57'7 6.9
2016-Feb-02 20:33N 43°19' E 004°60'1010.3
2016-Feb-02 19:32N 43°11' E 005°09'  
Track history (hours):
 
Tides and Currents Weather Stations Pressure Air Temp Water Temp Dewpoint Dewpoint Depression Visibility Wind Speed Wind Dir Waves Ship Positions

Bosporus

Last reported at 2016-Feb-08 11:23 UTC. Time now 2016-Feb-08 12:28 UTC.
Position N 43°26' E 004°54'.

Length 100 m; draft 4.2 m.

Type: Cargo ship. MMSI: 304010802.

Date/timePositionNaut miles runAvg speedWind from/ knotsBaromVisibWave heightAir tempDewpointWater temp
2016-Feb-08 11:23N 43°26' E 004°54'0 0.0
2016-Feb-08 10:32N 43°26' E 004°54'0 0.0
2016-Feb-08 09:20N 43°26' E 004°54'0 0.0
2016-Feb-08 08:32N 43°26' E 004°54'0 0.0
2016-Feb-08 07:08N 43°26' E 004°54'0 0.0
2016-Feb-08 06:29N 43°26' E 004°54'0 0.0
2016-Feb-08 03:34N 43°26' E 004°54'7 7.1
2016-Feb-08 02:33N 43°20' E 004°59'1111.1
2016-Feb-08 01:33N 43°15' E 004°46'1211.7
2016-Feb-08 00:33N 43°12' E 004°30'  
2016-Feb-05 20:12N 41°07' E 001°58'36 9.6
2016-Feb-05 16:28N 41°28' E 002°37'9 9.3
2016-Feb-05 15:33N 41°33' E 002°46'11 9.4
2016-Feb-05 14:24N 41°39' E 002°58'9 9.7
2016-Feb-05 13:29N 41°45' E 003°07'9 9.7
2016-Feb-05 12:33N 41°52' E 003°16'97 9.7
2016-Feb-05 02:33N 43°16' E 004°19'10 9.9
2016-Feb-05 01:33N 43°16' E 004°33'10 9.7
2016-Feb-05 00:33N 43°16' E 004°46'9 8.3
2016-Feb-04 23:31N 43°21' E 004°56'5 0.4
2016-Feb-04 10:32N 43°26' E 004°54'0 0.0
2016-Feb-04 09:32N 43°26' E 004°54'0 0.0
2016-Feb-04 08:33N 43°26' E 004°54'0 0.0
2016-Feb-04 07:32N 43°26' E 004°54'1 0.0
2016-Feb-03 12:33N 43°25' E 004°53'3 2.8
2016-Feb-03 11:33N 43°25' E 004°57'0 0.0
2016-Feb-03 10:33N 43°25' E 004°57'0 0.0
2016-Feb-03 09:31N 43°25' E 004°57'0 0.0
2016-Feb-03 08:31N 43°25' E 004°57'0 0.0
2016-Feb-03 06:14N 43°25' E 004°57'0 0.0
2016-Feb-03 05:29N 43°25' E 004°57'0 0.0
2016-Feb-03 04:33N 43°25' E 004°57'0 0.0
2016-Feb-03 03:27N 43°25' E 004°57'0 0.0
2016-Feb-03 02:32N 43°25' E 004°57'0 0.0
2016-Feb-03 01:33N 43°25' E 004°57'0 0.0
2016-Feb-03 00:33N 43°25' E 004°57'0 0.0
2016-Feb-02 23:30N 43°25' E 004°57'0 0.0
2016-Feb-02 22:27N 43°25' E 004°57'0 0.0
2016-Feb-02 21:31N 43°25' E 004°57'7 6.9
2016-Feb-02 20:33N 43°19' E 004°60'1010.3
2016-Feb-02 19:32N 43°11' E 005°09'  

Dump ship's entire track history